FDX5729 KSAN-KTUS
Flight info
| Callsign | FDX5729 |
|---|---|
| Flight time | 0h 55m |
| Altitude | 35000 |
| Route | ZZOOO4 GBN DINGO6 |
| Aircraft | B77L/H-SDE1E2E3FGHIJ2J3J4J5M1RWXY/LB1D1 |
Departure
| Time | 2026-04-24 03:34 |
|---|---|
| Airport | San Diego International Airport (KSAN) |
Arrival
| Time | 2026-04-24 04:30 |
|---|---|
| Airport | Tucson International Airport (KTUS) |
| Time | Latitude | Longitude | Altitude | Speed | Heading |
|---|---|---|---|---|---|
| 2026-04-24 03:11 | 32.73294 | -117.20788 | 27 ft | 0 kts | 233° |
| 2026-04-24 03:15 | 32.73305 | -117.20770 | 26 ft | 4 kts | 235° |
| 2026-04-24 03:16 | 32.73320 | -117.20743 | 25 ft | 4 kts | 238° |
| 2026-04-24 03:16 | 32.73333 | -117.20717 | 27 ft | 4 kts | 244° |
| 2026-04-24 03:16 | 32.73342 | -117.20691 | 27 ft | 3 kts | 255° |
| 2026-04-24 03:16 | 32.73345 | -117.20674 | 27 ft | 3 kts | 265° |
| 2026-04-24 03:17 | 32.73345 | -117.20648 | 27 ft | 2 kts | 276° |
| 2026-04-24 03:17 | 32.73344 | -117.20633 | 27 ft | 2 kts | 277° |
| 2026-04-24 03:17 | 32.73342 | -117.20620 | 27 ft | 2 kts | 277° |
| 2026-04-24 03:17 | 32.73342 | -117.20613 | 27 ft | 0 kts | 276° |
| 2026-04-24 03:19 | 32.73342 | -117.20618 | 27 ft | 7 kts | 276° |
| 2026-04-24 03:20 | 32.73373 | -117.20690 | 27 ft | 6 kts | 330° |
| 2026-04-24 03:20 | 32.73388 | -117.20691 | 27 ft | 0 kts | 0° |
| 2026-04-24 03:26 | 32.73428 | -117.20691 | 27 ft | 16 kts | 0° |
| 2026-04-24 03:26 | 32.73540 | -117.20675 | 27 ft | 16 kts | 23° |
| 2026-04-24 03:26 | 32.73606 | -117.20576 | 27 ft | 16 kts | 83° |
| 2026-04-24 03:26 | 32.73604 | -117.20442 | 27 ft | 16 kts | 95° |
| 2026-04-24 03:27 | 32.73578 | -117.20312 | 27 ft | 16 kts | 105° |
| 2026-04-24 03:27 | 32.73546 | -117.20177 | 27 ft | 18 kts | 106° |
| 2026-04-24 03:27 | 32.73511 | -117.20034 | 27 ft | 18 kts | 106° |
| 2026-04-24 03:27 | 32.73476 | -117.19890 | 27 ft | 18 kts | 106° |
| 2026-04-24 03:28 | 32.73441 | -117.19747 | 27 ft | 18 kts | 105° |
| 2026-04-24 03:28 | 32.73407 | -117.19603 | 27 ft | 18 kts | 106° |
| 2026-04-24 03:28 | 32.73383 | -117.19502 | 27 ft | 12 kts | 106° |
| 2026-04-24 03:28 | 32.73359 | -117.19405 | 27 ft | 12 kts | 106° |
| 2026-04-24 03:29 | 32.73330 | -117.19286 | 27 ft | 17 kts | 106° |
| 2026-04-24 03:29 | 32.73297 | -117.19152 | 27 ft | 17 kts | 106° |
| 2026-04-24 03:29 | 32.73264 | -117.19018 | 27 ft | 17 kts | 106° |
| 2026-04-24 03:29 | 32.73231 | -117.18883 | 27 ft | 17 kts | 105° |
| 2026-04-24 03:30 | 32.73200 | -117.18749 | 27 ft | 17 kts | 105° |
| 2026-04-24 03:30 | 32.73167 | -117.18615 | 27 ft | 17 kts | 107° |
| 2026-04-24 03:30 | 32.73135 | -117.18480 | 26 ft | 17 kts | 105° |
| 2026-04-24 03:30 | 32.73103 | -117.18346 | 26 ft | 17 kts | 107° |
| 2026-04-24 03:31 | 32.73069 | -117.18212 | 32 ft | 17 kts | 106° |
| 2026-04-24 03:31 | 32.73037 | -117.18079 | 32 ft | 17 kts | 106° |
| 2026-04-24 03:31 | 32.73004 | -117.17945 | 26 ft | 17 kts | 106° |
| 2026-04-24 03:31 | 32.72940 | -117.17831 | 26 ft | 17 kts | 124° |
| 2026-04-24 03:32 | 32.72945 | -117.17714 | 26 ft | 0 kts | 73° |
| 2026-04-24 03:33 | 32.72957 | -117.17669 | 26 ft | 19 kts | 72° |
| 2026-04-24 03:33 | 32.73039 | -117.17657 | 26 ft | 15 kts | 290° |
| 2026-04-24 03:34 | 32.73107 | -117.17954 | 31 ft | 83 kts | 286° |
| 2026-04-24 03:34 | 32.73368 | -117.19023 | 37 ft | 184 kts | 287° |
| 2026-04-24 03:34 | 32.73774 | -117.20631 | 606 ft | 221 kts | 287° |
| 2026-04-24 03:34 | 32.74228 | -117.22506 | 1524 ft | 246 kts | 286° |
| 2026-04-24 03:35 | 32.74535 | -117.23792 | 2552 ft | 245 kts | 286° |
| 2026-04-24 03:35 | 32.75010 | -117.25769 | 4101 ft | 253 kts | 285° |
| 2026-04-24 03:35 | 32.75498 | -117.27802 | 5669 ft | 260 kts | 285° |
| 2026-04-24 03:35 | 32.75998 | -117.29881 | 7262 ft | 263 kts | 285° |
| 2026-04-24 03:36 | 32.76484 | -117.31983 | 8731 ft | 265 kts | 280° |
| 2026-04-24 03:36 | 32.76413 | -117.34180 | 9988 ft | 272 kts | 253° |
| 2026-04-24 03:36 | 32.75499 | -117.36166 | 11273 ft | 280 kts | 230° |
| 2026-04-24 03:36 | 32.73938 | -117.37582 | 12589 ft | 289 kts | 207° |
| 2026-04-24 03:37 | 32.71940 | -117.38140 | 13822 ft | 306 kts | 184° |
| 2026-04-24 03:37 | 32.69760 | -117.37688 | 14588 ft | 335 kts | 162° |
| 2026-04-24 03:37 | 32.67662 | -117.36196 | 15004 ft | 374 kts | 143° |
| 2026-04-24 03:37 | 32.65985 | -117.33672 | 15495 ft | 398 kts | 116° |
| 2026-04-24 03:38 | 32.65045 | -117.30622 | 16721 ft | 389 kts | 110° |
| 2026-04-24 03:38 | 32.64170 | -117.27629 | 17977 ft | 379 kts | 112° |
| 2026-04-24 03:38 | 32.63233 | -117.24754 | 19044 ft | 369 kts | 109° |
| 2026-04-24 03:38 | 32.62889 | -117.21738 | 19678 ft | 374 kts | 86° |
| 2026-04-24 03:39 | 32.63156 | -117.18648 | 20277 ft | 379 kts | 81° |
| 2026-04-24 03:39 | 32.63553 | -117.15533 | 20854 ft | 385 kts | 80° |
| 2026-04-24 03:39 | 32.63966 | -117.12375 | 21489 ft | 390 kts | 81° |
| 2026-04-24 03:39 | 32.64357 | -117.09172 | 22129 ft | 395 kts | 81° |
| 2026-04-24 03:40 | 32.64717 | -117.05926 | 22769 ft | 399 kts | 82° |
| 2026-04-24 03:40 | 32.65053 | -117.02641 | 23056 ft | 404 kts | 83° |
| 2026-04-24 03:40 | 32.65370 | -116.99318 | 22993 ft | 405 kts | 83° |
| 2026-04-24 03:40 | 32.65677 | -116.95932 | 23071 ft | 424 kts | 83° |
| 2026-04-24 03:41 | 32.65993 | -116.92358 | 23249 ft | 446 kts | 83° |
| 2026-04-24 03:41 | 32.66318 | -116.88619 | 23610 ft | 463 kts | 83° |
| 2026-04-24 03:41 | 32.66648 | -116.84777 | 24144 ft | 472 kts | 83° |
| 2026-04-24 03:41 | 32.66982 | -116.80876 | 24758 ft | 478 kts | 84° |
| 2026-04-24 03:42 | 32.67318 | -116.76930 | 25465 ft | 482 kts | 84° |
| 2026-04-24 03:42 | 32.67656 | -116.72964 | 26152 ft | 485 kts | 84° |
| 2026-04-24 03:42 | 32.67996 | -116.68962 | 26774 ft | 490 kts | 84° |
| 2026-04-24 03:42 | 32.68339 | -116.64912 | 27333 ft | 495 kts | 84° |
| 2026-04-24 03:43 | 32.68683 | -116.60827 | 27907 ft | 500 kts | 84° |
| 2026-04-24 03:43 | 32.69030 | -116.56702 | 28487 ft | 504 kts | 84° |
| 2026-04-24 03:43 | 32.69379 | -116.52543 | 29033 ft | 509 kts | 84° |
| 2026-04-24 03:43 | 32.69729 | -116.48344 | 29562 ft | 513 kts | 84° |
| 2026-04-24 03:44 | 32.70076 | -116.44173 | 30073 ft | 517 kts | 84° |
| 2026-04-24 03:44 | 32.70429 | -116.39909 | 30462 ft | 522 kts | 84° |
| 2026-04-24 03:44 | 32.70784 | -116.35603 | 30807 ft | 527 kts | 84° |
| 2026-04-24 03:44 | 32.71142 | -116.31249 | 31145 ft | 532 kts | 84° |
| 2026-04-24 03:45 | 32.71500 | -116.26857 | 31494 ft | 536 kts | 84° |
| 2026-04-24 03:45 | 32.71860 | -116.22430 | 31852 ft | 540 kts | 84° |
| 2026-04-24 03:45 | 32.72222 | -116.17968 | 32230 ft | 545 kts | 84° |
| 2026-04-24 03:45 | 32.72584 | -116.13479 | 32509 ft | 549 kts | 84° |
| 2026-04-24 03:46 | 32.72948 | -116.08950 | 32763 ft | 553 kts | 84° |
| 2026-04-24 03:46 | 32.73311 | -116.04397 | 33031 ft | 556 kts | 84° |
| 2026-04-24 03:46 | 32.73676 | -115.99810 | 33306 ft | 559 kts | 84° |
| 2026-04-24 03:46 | 32.74042 | -115.95193 | 33446 ft | 565 kts | 84° |
| 2026-04-24 03:47 | 32.74410 | -115.90517 | 33515 ft | 571 kts | 84° |
| 2026-04-24 03:47 | 32.75152 | -115.81038 | 33722 ft | 580 kts | 84° |
| 2026-04-24 03:47 | 32.75523 | -115.76251 | 33907 ft | 582 kts | 84° |
| 2026-04-24 03:48 | 32.75893 | -115.71462 | 34129 ft | 583 kts | 85° |
| 2026-04-24 03:48 | 32.76262 | -115.66668 | 34396 ft | 582 kts | 85° |
| 2026-04-24 03:48 | 32.76628 | -115.61883 | 34657 ft | 582 kts | 85° |
| 2026-04-24 03:48 | 32.76992 | -115.57096 | 34794 ft | 584 kts | 85° |
| 2026-04-24 03:49 | 32.77357 | -115.52274 | 34841 ft | 588 kts | 85° |
| 2026-04-24 03:49 | 32.78089 | -115.42529 | 34866 ft | 596 kts | 85° |
| 2026-04-24 03:50 | 32.78822 | -115.32668 | 34884 ft | 602 kts | 85° |
| 2026-04-24 03:50 | 32.79188 | -115.27712 | 35036 ft | 601 kts | 85° |
| 2026-04-24 03:50 | 32.79548 | -115.22799 | 35577 ft | 592 kts | 85° |
| 2026-04-24 03:50 | 32.79905 | -115.17903 | 35380 ft | 600 kts | 85° |
| 2026-04-24 03:51 | 32.80266 | -115.12932 | 35276 ft | 605 kts | 85° |
| 2026-04-24 03:51 | 32.80622 | -115.07989 | 35821 ft | 594 kts | 85° |
| 2026-04-24 03:51 | 32.80973 | -115.03103 | 35860 ft | 598 kts | 85° |
| 2026-04-24 03:51 | 32.81327 | -114.98147 | 35660 ft | 605 kts | 85° |
| 2026-04-24 03:52 | 32.81679 | -114.93177 | 35977 ft | 598 kts | 85° |
| 2026-04-24 03:52 | 32.82018 | -114.88376 | 36173 ft | 594 kts | 85° |
| 2026-04-24 03:52 | 32.82360 | -114.83497 | 35891 ft | 589 kts | 85° |
| 2026-04-24 03:52 | 32.82697 | -114.78664 | 35623 ft | 584 kts | 85° |
| 2026-04-24 03:53 | 32.83030 | -114.73865 | 35378 ft | 581 kts | 85° |
| 2026-04-24 03:53 | 32.83360 | -114.69081 | 35150 ft | 580 kts | 85° |
| 2026-04-24 03:53 | 32.83687 | -114.64313 | 35029 ft | 577 kts | 85° |
| 2026-04-24 03:54 | 32.84334 | -114.54803 | 34937 ft | 580 kts | 85° |
| 2026-04-24 03:54 | 32.84982 | -114.45185 | 34907 ft | 585 kts | 85° |
| 2026-04-24 03:55 | 32.85623 | -114.35533 | 34891 ft | 586 kts | 85° |
| 2026-04-24 03:55 | 32.86257 | -114.25876 | 34879 ft | 586 kts | 86° |
| 2026-04-24 03:56 | 32.86884 | -114.16223 | 34872 ft | 585 kts | 85° |
| 2026-04-24 03:56 | 32.87504 | -114.06573 | 34875 ft | 584 kts | 85° |
| 2026-04-24 03:57 | 32.88114 | -113.96947 | 34872 ft | 583 kts | 85° |
| 2026-04-24 03:57 | 32.88716 | -113.87329 | 34862 ft | 583 kts | 86° |
| 2026-04-24 03:58 | 32.89310 | -113.77725 | 34865 ft | 582 kts | 86° |
| 2026-04-24 03:58 | 32.89896 | -113.68123 | 34862 ft | 581 kts | 86° |
| 2026-04-24 03:59 | 32.90475 | -113.58530 | 34861 ft | 581 kts | 86° |
| 2026-04-24 03:59 | 32.91045 | -113.48944 | 34861 ft | 581 kts | 86° |
| 2026-04-24 04:00 | 32.91608 | -113.39363 | 34866 ft | 580 kts | 86° |
| 2026-04-24 04:00 | 32.92164 | -113.29779 | 34870 ft | 580 kts | 86° |
| 2026-04-24 04:01 | 32.92706 | -113.20308 | 34765 ft | 573 kts | 86° |
| 2026-04-24 04:01 | 32.92974 | -113.15569 | 34493 ft | 575 kts | 86° |
| 2026-04-24 04:01 | 32.93242 | -113.10808 | 34111 ft | 579 kts | 86° |
| 2026-04-24 04:01 | 32.93509 | -113.06020 | 33595 ft | 579 kts | 86° |
| 2026-04-24 04:02 | 32.93774 | -113.01250 | 32943 ft | 578 kts | 86° |
| 2026-04-24 04:02 | 32.94037 | -112.96479 | 32287 ft | 577 kts | 86° |
| 2026-04-24 04:02 | 32.94297 | -112.91729 | 31646 ft | 572 kts | 86° |
| 2026-04-24 04:02 | 32.94552 | -112.87032 | 30997 ft | 566 kts | 86° |
| 2026-04-24 04:03 | 32.94803 | -112.82374 | 30354 ft | 560 kts | 86° |
| 2026-04-24 04:03 | 32.95050 | -112.77772 | 29689 ft | 555 kts | 86° |
| 2026-04-24 04:03 | 32.95294 | -112.73207 | 28957 ft | 550 kts | 86° |
| 2026-04-24 04:03 | 32.95532 | -112.68690 | 28252 ft | 545 kts | 86° |
| 2026-04-24 04:04 | 32.95578 | -112.64216 | 27454 ft | 539 kts | 94° |
| 2026-04-24 04:04 | 32.95257 | -112.59786 | 26855 ft | 534 kts | 97° |
| 2026-04-24 04:04 | 32.94788 | -112.55423 | 26193 ft | 529 kts | 99° |
| 2026-04-24 04:04 | 32.94286 | -112.51100 | 25542 ft | 525 kts | 99° |
| 2026-04-24 04:05 | 32.93637 | -112.46844 | 24892 ft | 520 kts | 106° |
| 2026-04-24 04:05 | 32.92563 | -112.42766 | 24277 ft | 513 kts | 113° |
| 2026-04-24 04:05 | 32.91167 | -112.38887 | 23675 ft | 507 kts | 118° |
| 2026-04-24 04:05 | 32.89498 | -112.35227 | 22991 ft | 501 kts | 125° |
| 2026-04-24 04:06 | 32.87663 | -112.31731 | 22290 ft | 497 kts | 125° |
| 2026-04-24 04:06 | 32.85829 | -112.28246 | 21582 ft | 494 kts | 125° |
| 2026-04-24 04:06 | 32.84020 | -112.24793 | 20902 ft | 491 kts | 125° |
| 2026-04-24 04:06 | 32.82228 | -112.21353 | 20250 ft | 487 kts | 124° |
| 2026-04-24 04:07 | 32.80458 | -112.17939 | 19591 ft | 483 kts | 124° |
| 2026-04-24 04:07 | 32.78705 | -112.14550 | 18952 ft | 480 kts | 124° |
| 2026-04-24 04:07 | 32.76967 | -112.11190 | 18337 ft | 476 kts | 124° |
| 2026-04-24 04:07 | 32.75243 | -112.07856 | 17650 ft | 472 kts | 124° |
| 2026-04-24 04:08 | 32.73535 | -112.04552 | 16962 ft | 467 kts | 124° |
| 2026-04-24 04:08 | 32.71838 | -112.01276 | 16286 ft | 463 kts | 124° |
| 2026-04-24 04:08 | 32.70155 | -111.98031 | 15630 ft | 460 kts | 124° |
| 2026-04-24 04:08 | 32.68483 | -111.94810 | 14973 ft | 456 kts | 124° |
| 2026-04-24 04:09 | 32.66825 | -111.91620 | 14329 ft | 452 kts | 124° |
| 2026-04-24 04:09 | 32.65183 | -111.88465 | 13718 ft | 448 kts | 124° |
| 2026-04-24 04:09 | 32.63551 | -111.85330 | 13101 ft | 442 kts | 124° |
| 2026-04-24 04:09 | 32.61997 | -111.82341 | 12679 ft | 413 kts | 124° |
| 2026-04-24 04:10 | 32.60531 | -111.79523 | 11954 ft | 390 kts | 124° |
| 2026-04-24 04:10 | 32.59135 | -111.76847 | 11285 ft | 374 kts | 124° |
| 2026-04-24 04:10 | 32.57776 | -111.74247 | 10641 ft | 369 kts | 124° |
| 2026-04-24 04:11 | 32.55096 | -111.69132 | 9361 ft | 365 kts | 123° |
| 2026-04-24 04:11 | 32.53765 | -111.66592 | 8683 ft | 361 kts | 123° |
| 2026-04-24 04:11 | 32.52448 | -111.64078 | 8215 ft | 358 kts | 123° |
| 2026-04-24 04:11 | 32.51137 | -111.61576 | 8033 ft | 357 kts | 123° |
| 2026-04-24 04:12 | 32.49831 | -111.59088 | 7934 ft | 354 kts | 123° |
| 2026-04-24 04:12 | 32.48535 | -111.56618 | 7943 ft | 352 kts | 123° |
| 2026-04-24 04:12 | 32.47293 | -111.54248 | 7924 ft | 324 kts | 123° |
| 2026-04-24 04:12 | 32.46145 | -111.52057 | 7925 ft | 304 kts | 124° |
| 2026-04-24 04:13 | 32.45051 | -111.49974 | 7940 ft | 293 kts | 124° |
| 2026-04-24 04:13 | 32.43971 | -111.47927 | 7950 ft | 294 kts | 124° |
| 2026-04-24 04:13 | 32.42883 | -111.45862 | 7959 ft | 297 kts | 124° |
| 2026-04-24 04:13 | 32.41787 | -111.43781 | 7972 ft | 299 kts | 124° |
| 2026-04-24 04:14 | 32.40684 | -111.41688 | 7976 ft | 300 kts | 124° |
| 2026-04-24 04:14 | 32.39583 | -111.39597 | 7973 ft | 300 kts | 124° |
| 2026-04-24 04:14 | 32.38479 | -111.37505 | 7966 ft | 299 kts | 124° |
| 2026-04-24 04:14 | 32.37378 | -111.35419 | 7956 ft | 299 kts | 124° |
| 2026-04-24 04:15 | 32.36267 | -111.33352 | 7961 ft | 296 kts | 129° |
| 2026-04-24 04:15 | 32.34818 | -111.31683 | 7967 ft | 290 kts | 146° |
| 2026-04-24 04:15 | 32.33191 | -111.30275 | 7974 ft | 293 kts | 147° |
| 2026-04-24 04:15 | 32.31508 | -111.28838 | 7974 ft | 300 kts | 147° |
| 2026-04-24 04:16 | 32.29838 | -111.27401 | 7956 ft | 294 kts | 146° |
| 2026-04-24 04:16 | 32.28206 | -111.25985 | 7946 ft | 289 kts | 146° |
| 2026-04-24 04:16 | 32.26592 | -111.24578 | 7823 ft | 287 kts | 146° |
| 2026-04-24 04:16 | 32.24986 | -111.23172 | 7575 ft | 288 kts | 146° |
| 2026-04-24 04:17 | 32.23379 | -111.21762 | 7336 ft | 288 kts | 146° |
| 2026-04-24 04:17 | 32.21773 | -111.20349 | 7158 ft | 287 kts | 146° |
| 2026-04-24 04:17 | 32.20174 | -111.18942 | 6950 ft | 286 kts | 145° |
| 2026-04-24 04:17 | 32.18580 | -111.17537 | 6757 ft | 288 kts | 145° |
| 2026-04-24 04:18 | 32.16824 | -111.15996 | 6818 ft | 343 kts | 145° |
| 2026-04-24 04:18 | 32.14769 | -111.14193 | 6860 ft | 387 kts | 144° |
| 2026-04-24 04:18 | 32.12608 | -111.12289 | 7049 ft | 382 kts | 144° |
| 2026-04-24 04:18 | 32.10530 | -111.10452 | 7126 ft | 365 kts | 144° |
| 2026-04-24 04:19 | 32.08561 | -111.08713 | 6961 ft | 337 kts | 145° |
| 2026-04-24 04:19 | 32.06771 | -111.07132 | 6733 ft | 306 kts | 145° |
| 2026-04-24 04:19 | 32.05148 | -111.05703 | 6542 ft | 278 kts | 145° |
| 2026-04-24 04:19 | 32.03668 | -111.04400 | 6349 ft | 253 kts | 145° |
| 2026-04-24 04:20 | 32.02355 | -111.03247 | 6224 ft | 224 kts | 146° |
| 2026-04-24 04:20 | 32.01182 | -111.02215 | 6230 ft | 203 kts | 146° |
| 2026-04-24 04:20 | 32.00003 | -111.01185 | 6265 ft | 214 kts | 146° |
| 2026-04-24 04:20 | 31.98822 | -111.00152 | 6191 ft | 208 kts | 146° |
| 2026-04-24 04:21 | 31.97677 | -110.99148 | 6176 ft | 202 kts | 146° |
| 2026-04-24 04:21 | 31.96553 | -110.98163 | 6189 ft | 203 kts | 146° |
| 2026-04-24 04:21 | 31.95415 | -110.97167 | 6180 ft | 203 kts | 146° |
| 2026-04-24 04:21 | 31.94281 | -110.96174 | 6165 ft | 203 kts | 146° |
| 2026-04-24 04:22 | 31.93143 | -110.95176 | 6169 ft | 204 kts | 146° |
| 2026-04-24 04:22 | 31.92006 | -110.94181 | 6158 ft | 204 kts | 146° |
| 2026-04-24 04:22 | 31.90869 | -110.93187 | 6154 ft | 205 kts | 146° |
| 2026-04-24 04:22 | 31.89725 | -110.92185 | 6153 ft | 205 kts | 146° |
| 2026-04-24 04:23 | 31.88580 | -110.91185 | 6145 ft | 205 kts | 146° |
| 2026-04-24 04:23 | 31.87854 | -110.90445 | 6128 ft | 205 kts | 131° |
| 2026-04-24 04:23 | 31.87359 | -110.88893 | 6137 ft | 207 kts | 91° |
| 2026-04-24 04:23 | 31.87798 | -110.87309 | 6132 ft | 207 kts | 51° |
| 2026-04-24 04:24 | 31.88790 | -110.86093 | 6157 ft | 208 kts | 43° |
| 2026-04-24 04:24 | 31.89808 | -110.84897 | 6154 ft | 210 kts | 43° |
| 2026-04-24 04:24 | 31.90849 | -110.83676 | 6155 ft | 212 kts | 43° |
| 2026-04-24 04:24 | 31.91909 | -110.82432 | 6151 ft | 213 kts | 43° |
| 2026-04-24 04:25 | 31.92956 | -110.81203 | 6148 ft | 212 kts | 43° |
| 2026-04-24 04:25 | 31.93994 | -110.79983 | 6150 ft | 210 kts | 43° |
| 2026-04-24 04:25 | 31.95027 | -110.78768 | 6150 ft | 209 kts | 42° |
| 2026-04-24 04:25 | 31.96203 | -110.77839 | 6127 ft | 202 kts | 12° |
| 2026-04-24 04:26 | 31.97551 | -110.77903 | 6162 ft | 198 kts | 337° |
| 2026-04-24 04:26 | 31.98696 | -110.78760 | 6157 ft | 189 kts | 315° |
| 2026-04-24 04:26 | 31.99612 | -110.79820 | 6071 ft | 182 kts | 310° |
| 2026-04-24 04:26 | 32.00416 | -110.80899 | 5974 ft | 176 kts | 309° |
| 2026-04-24 04:27 | 32.01258 | -110.81980 | 5827 ft | 177 kts | 313° |
| 2026-04-24 04:27 | 32.02163 | -110.82947 | 5579 ft | 177 kts | 316° |
| 2026-04-24 04:27 | 32.03074 | -110.83917 | 5338 ft | 176 kts | 314° |
| 2026-04-24 04:27 | 32.03911 | -110.84933 | 5069 ft | 167 kts | 310° |
| 2026-04-24 04:28 | 32.04707 | -110.85903 | 4593 ft | 162 kts | 314° |
| 2026-04-24 04:28 | 32.05514 | -110.86792 | 4192 ft | 156 kts | 315° |
| 2026-04-24 04:28 | 32.06294 | -110.87679 | 3959 ft | 155 kts | 314° |
| 2026-04-24 04:28 | 32.07055 | -110.88601 | 3729 ft | 159 kts | 313° |
| 2026-04-24 04:29 | 32.07839 | -110.89530 | 3514 ft | 161 kts | 314° |
| 2026-04-24 04:29 | 32.08643 | -110.90448 | 3274 ft | 160 kts | 314° |
| 2026-04-24 04:29 | 32.09427 | -110.91364 | 2950 ft | 159 kts | 311° |
| 2026-04-24 04:29 | 32.10186 | -110.92280 | 2692 ft | 154 kts | 314° |
| 2026-04-24 04:30 | 32.10908 | -110.93124 | 2639 ft | 137 kts | 314° |
| 2026-04-24 04:30 | 32.11455 | -110.93763 | 2622 ft | 75 kts | 315° |
| 2026-04-24 04:30 | 32.11783 | -110.94098 | 2612 ft | 38 kts | 340° |
| 2026-04-24 04:30 | 32.11897 | -110.94057 | 2611 ft | 11 kts | 94° |
| 2026-04-24 04:31 | 32.11818 | -110.93937 | 2615 ft | 32 kts | 134° |
| 2026-04-24 04:31 | 32.11662 | -110.93752 | 2622 ft | 30 kts | 135° |
| 2026-04-24 04:31 | 32.11513 | -110.93579 | 2628 ft | 30 kts | 135° |
| 2026-04-24 04:31 | 32.11366 | -110.93407 | 2633 ft | 22 kts | 134° |
| 2026-04-24 04:32 | 32.11359 | -110.93398 | 2633 ft | 0 kts | 134° |
| 2026-04-24 04:33 | 32.11345 | -110.93382 | 2634 ft | 25 kts | 134° |
| 2026-04-24 04:33 | 32.10947 | -110.92921 | 2644 ft | 134 kts | 135° |
| 2026-04-24 04:34 | 32.10055 | -110.91891 | 2871 ft | 207 kts | 136° |
| 2026-04-24 04:34 | 32.09256 | -110.90704 | 4502 ft | 175 kts | 108° |
| 2026-04-24 04:34 | 32.09161 | -110.89198 | 4749 ft | 194 kts | 79° |
| 2026-04-24 04:34 | 32.09584 | -110.87626 | 4212 ft | 208 kts | 59° |
| 2026-04-24 04:35 | 32.10385 | -110.86248 | 4024 ft | 201 kts | 48° |
| 2026-04-24 04:35 | 32.11378 | -110.85197 | 3825 ft | 182 kts | 20° |
| 2026-04-24 04:35 | 32.12518 | -110.85040 | 3632 ft | 165 kts | 346° |
| 2026-04-24 04:35 | 32.13587 | -110.85429 | 3519 ft | 160 kts | 332° |
| 2026-04-24 04:36 | 32.14539 | -110.86107 | 3237 ft | 163 kts | 318° |
| 2026-04-24 04:36 | 32.15395 | -110.86984 | 2745 ft | 163 kts | 314° |
| 2026-04-24 04:36 | 32.16185 | -110.87843 | 2683 ft | 140 kts | 317° |
| 2026-04-24 04:36 | 32.16954 | -110.88673 | 2684 ft | 181 kts | 314° |
| 2026-04-24 04:37 | 32.18082 | -110.89363 | 3525 ft | 200 kts | 0° |